Time;durP1;ratioP1;P1;durP2;ratioP2;P2;SDS_P1;SDS_P2;PMS_P1;PMS_P2;Temp;Humidity;BMP_temperature;BMP_pressure;BME280_temperature;BME280_humidity;BME280_pressure;Samples;Min_cycle;Max_cycle;Signal;HPM_P1;HPM_P2
2022/06/29 00:00:15;;;;;;;4.53;3.33;;;;;;;;;;5115127;28;20026;-79
2022/06/29 00:02:43;;;;;;;4.10;3.13;;;;;;;;;;5114788;28;20023;-80
2022/06/29 00:05:10;;;;;;;4.15;2.92;;;;;;;;;;5115146;28;20044;-80
2022/06/29 00:07:36;;;;;;;3.92;2.70;;;;;;;;;;5096408;28;20026;-79
2022/06/29 00:10:03;;;;;;;5.63;3.70;;;;;;;;;;5114902;28;20023;-78
2022/06/29 00:12:29;;;;;;;4.72;3.00;;;;;;;;;;5114428;28;20053;-80
2022/06/29 00:14:56;;;;;;;3.67;3.05;;;;;;;;;;5114822;28;20024;-78
2022/06/29 00:17:22;;;;;;;3.30;3.00;;;;;;;;;;5114431;28;20031;-79
2022/06/29 00:19:49;;;;;;;4.38;3.13;;;;;;;;;;5114693;28;20027;-78
2022/06/29 00:22:15;;;;;;;3.63;3.08;;;;;;;;;;5114745;28;20031;-79
2022/06/29 00:24:42;;;;;;;3.80;3.13;;;;;;;;;;5114479;28;20024;-81
2022/06/29 00:27:08;;;;;;;3.47;3.05;;;;;;;;;;5114526;28;20073;-79
2022/06/29 00:29:34;;;;;;;4.88;3.53;;;;;;;;;;5114389;28;20016;-81
2022/06/29 00:32:00;;;;;;;4.05;3.17;;;;;;;;;;5114427;28;20020;-79
2022/06/29 00:34:27;;;;;;;4.25;3.50;;;;;;;;;;5113920;28;20386;-82
2022/06/29 00:36:53;;;;;;;5.20;3.20;;;;;;;;;;5113894;28;20375;-81
2022/06/29 00:39:19;;;;;;;3.47;3.20;;;;;;;;;;5114437;28;20015;-78
2022/06/29 00:41:46;;;;;;;4.30;3.38;;;;;;;;;;5095458;28;20138;-81
2022/06/29 00:44:31;;;;;;;4.82;3.58;;;;;;;;;;5095847;28;20078;-82
2022/06/29 00:47:06;;;;;;;5.63;3.83;;;;;;;;;;5114162;28;20091;-81
2022/06/29 00:49:33;;;;;;;2.97;2.78;;;;;;;;;;5114132;28;20047;-81
2022/06/29 00:52:10;;;;;;;3.20;2.97;;;;;;;;;;5113873;28;20034;-80
2022/06/29 00:54:36;;;;;;;3.90;3.50;;;;;;;;;;5113851;28;20510;-80
2022/06/29 00:57:06;;;;;;;4.97;3.85;;;;;;;;;;5113748;28;20034;-80
2022/06/29 00:59:33;;;;;;;4.40;3.45;;;;;;;;;;5113821;28;20019;-78
2022/06/29 01:02:00;;;;;;;3.30;3.00;;;;;;;;;;5113640;28;20063;-79
2022/06/29 01:04:26;;;;;;;4.38;3.97;;;;;;;;;;5113665;28;20030;-78
2022/06/29 01:06:52;;;;;;;4.68;2.92;;;;;;;;;;5113767;28;20374;-81
2022/06/29 01:09:18;;;;;;;4.88;3.33;;;;;;;;;;5113605;28;20098;-78
2022/06/29 01:11:44;;;;;;;3.95;3.30;;;;;;;;;;5113660;28;20030;-80
2022/06/29 01:14:15;;;;;;;3.45;2.90;;;;;;;;;;5113367;28;20028;-81
2022/06/29 01:16:41;;;;;;;3.92;3.58;;;;;;;;;;5095444;28;20015;-79
2022/06/29 01:19:07;;;;;;;5.57;3.58;;;;;;;;;;5113518;28;20078;-79
2022/06/29 01:21:35;;;;;;;5.15;3.22;;;;;;;;;;5113823;28;20437;-79
2022/06/29 01:24:02;;;;;;;3.97;3.55;;;;;;;;;;5113250;28;20034;-80
2022/06/29 01:26:28;;;;;;;4.75;3.97;;;;;;;;;;5113367;28;20390;-79
2022/06/29 01:28:54;;;;;;;3.55;3.25;;;;;;;;;;5113381;28;20107;-81
2022/06/29 01:31:20;;;;;;;3.85;3.55;;;;;;;;;;5113100;28;20028;-79
2022/06/29 01:33:48;;;;;;;3.97;3.67;;;;;;;;;;5113119;28;20089;-81
2022/06/29 01:36:14;;;;;;;4.35;3.70;;;;;;;;;;5112980;28;20470;-82
2022/06/29 01:38:41;;;;;;;5.75;3.38;;;;;;;;;;5113114;28;20078;-79
2022/06/29 01:41:08;;;;;;;3.28;2.88;;;;;;;;;;5094471;28;20082;-79
2022/06/29 01:43:34;;;;;;;3.35;3.05;;;;;;;;;;5113142;28;20417;-78
2022/06/29 01:46:01;;;;;;;3.58;3.28;;;;;;;;;;5112935;28;20084;-81
2022/06/29 01:48:27;;;;;;;3.65;3.28;;;;;;;;;;5112202;28;20028;-78
2022/06/29 01:50:54;;;;;;;4.03;3.50;;;;;;;;;;5094806;28;20023;-82
2022/06/29 01:53:20;;;;;;;6.93;3.85;;;;;;;;;;5112673;28;20096;-79
2022/06/29 01:55:47;;;;;;;3.88;3.35;;;;;;;;;;5112915;28;20169;-81
2022/06/29 01:58:14;;;;;;;4.35;3.95;;;;;;;;;;5112741;28;20094;-81
2022/06/29 02:00:41;;;;;;;3.40;3.10;;;;;;;;;;5112851;28;20016;-81
2022/06/29 02:03:07;;;;;;;3.10;2.90;;;;;;;;;;5112727;28;20030;-83
2022/06/29 02:05:34;;;;;;;4.22;3.80;;;;;;;;;;5094451;28;20058;-79
2022/06/29 02:08:00;;;;;;;3.58;3.28;;;;;;;;;;5112810;28;20423;-79
2022/06/29 02:10:26;;;;;;;3.28;2.97;;;;;;;;;;5112510;28;20020;-81
2022/06/29 02:12:52;;;;;;;4.00;3.53;;;;;;;;;;5112697;28;20490;-82
2022/06/29 02:15:18;;;;;;;4.45;3.60;;;;;;;;;;5094296;28;20069;-78
2022/06/29 02:17:45;;;;;;;4.22;3.80;;;;;;;;;;5112697;28;20078;-78
2022/06/29 02:20:14;;;;;;;3.03;2.83;;;;;;;;;;5112630;28;20023;-81
2022/06/29 02:22:40;;;;;;;4.80;3.40;;;;;;;;;;5112636;28;20103;-81
2022/06/29 02:25:07;;;;;;;5.20;3.33;;;;;;;;;;5112728;28;20386;-78
2022/06/29 02:27:33;;;;;;;3.42;3.13;;;;;;;;;;5112527;28;20019;-79
2022/06/29 02:29:59;;;;;;;3.63;3.30;;;;;;;;;;5112621;28;20024;-79
2022/06/29 02:35:10;;;;;;;4.70;3.20;;;;;;;;;;5112494;28;20760;-82
2022/06/29 02:37:36;;;;;;;4.75;3.25;;;;;;;;;;5112541;28;20098;-81
2022/06/29 02:40:02;;;;;;;4.55;3.72;;;;;;;;;;5112335;28;20094;-77
2022/06/29 02:42:28;;;;;;;4.88;3.45;;;;;;;;;;5112394;28;20493;-80
2022/06/29 02:44:54;;;;;;;4.22;3.20;;;;;;;;;;5112514;28;20031;-78
2022/06/29 02:47:20;;;;;;;4.68;3.47;;;;;;;;;;5112305;28;20032;-79
2022/06/29 02:49:46;;;;;;;4.43;3.88;;;;;;;;;;5112425;28;20024;-82
2022/06/29 02:52:12;;;;;;;5.47;3.97;;;;;;;;;;5112310;28;20019;-80
2022/06/29 02:54:39;;;;;;;5.40;3.83;;;;;;;;;;5112323;28;20032;-77
2022/06/29 02:57:05;;;;;;;4.15;3.78;;;;;;;;;;5112206;28;20052;-81
2022/06/29 02:59:31;;;;;;;4.90;4.00;;;;;;;;;;5115079;28;20019;-81
2022/06/29 03:01:57;;;;;;;4.47;4.00;;;;;;;;;;5116224;28;20024;-81
2022/06/29 03:04:24;;;;;;;7.15;3.60;;;;;;;;;;5115896;28;20393;-82
2022/06/29 03:06:50;;;;;;;4.07;3.67;;;;;;;;;;5116030;28;20028;-80
2022/06/29 03:09:16;;;;;;;3.60;3.30;;;;;;;;;;5115871;28;20027;-78
2022/06/29 03:11:42;;;;;;;4.60;2.95;;;;;;;;;;5116095;28;20020;-77
2022/06/29 03:14:08;;;;;;;8.38;3.35;;;;;;;;;;5115810;28;20084;-79
2022/06/29 03:16:34;;;;;;;4.07;3.70;;;;;;;;;;5115977;28;20028;-78
2022/06/29 03:19:00;;;;;;;4.00;3.55;;;;;;;;;;5115945;28;20100;-80
2022/06/29 03:21:26;;;;;;;5.00;3.78;;;;;;;;;;5115615;28;20496;-81
2022/06/29 03:23:52;;;;;;;10.27;4.05;;;;;;;;;;5115792;28;20024;-79
2022/06/29 03:26:18;;;;;;;6.82;3.35;;;;;;;;;;5097133;28;20394;-81
2022/06/29 03:28:44;;;;;;;7.13;3.88;;;;;;;;;;5115708;28;20024;-78
2022/06/29 03:31:11;;;;;;;4.07;3.42;;;;;;;;;;5115723;28;20023;-82
2022/06/29 03:33:37;;;;;;;20.85;16.05;;;;;;;;;;5115314;28;20047;-78
2022/06/29 03:36:03;;;;;;;20.98;18.45;;;;;;;;;;5115662;28;20023;-78
2022/06/29 03:38:29;;;;;;;10.20;8.85;;;;;;;;;;5096986;28;20026;-78
2022/06/29 03:40:55;;;;;;;10.10;9.10;;;;;;;;;;5115307;28;20510;-77
2022/06/29 03:43:21;;;;;;;7.18;5.43;;;;;;;;;;5115331;28;20390;-79
2022/06/29 03:45:47;;;;;;;6.63;4.75;;;;;;;;;;5115199;28;20447;-79
2022/06/29 03:48:15;;;;;;;3.72;3.30;;;;;;;;;;5115061;28;20170;-80
2022/06/29 03:50:41;;;;;;;4.32;3.38;;;;;;;;;;5114781;28;20027;-78
2022/06/29 03:53:07;;;;;;;5.13;3.97;;;;;;;;;;5115101;28;20028;-77
2022/06/29 03:55:33;;;;;;;4.25;3.88;;;;;;;;;;5114825;28;20047;-78
2022/06/29 03:57:59;;;;;;;4.57;3.38;;;;;;;;;;5115103;28;20486;-76
2022/06/29 04:00:25;;;;;;;4.20;3.80;;;;;;;;;;5114872;28;20028;-78
2022/06/29 04:02:52;;;;;;;5.78;3.97;;;;;;;;;;5114585;28;20043;-79
2022/06/29 04:05:18;;;;;;;4.38;3.63;;;;;;;;;;5113843;28;20389;-80
2022/06/29 04:07:44;;;;;;;4.65;3.97;;;;;;;;;;5114505;28;20024;-77
2022/06/29 04:10:10;;;;;;;4.35;3.80;;;;;;;;;;5113768;28;20028;-78
2022/06/29 04:12:37;;;;;;;11.63;9.15;;;;;;;;;;5114478;28;20026;-78
2022/06/29 04:15:04;;;;;;;5.60;4.43;;;;;;;;;;5114713;28;20016;-79
2022/06/29 04:17:30;;;;;;;4.88;4.47;;;;;;;;;;5114695;28;20026;-79
2022/06/29 04:19:56;;;;;;;3.80;3.50;;;;;;;;;;5114274;28;20020;-78
2022/06/29 04:22:22;;;;;;;4.55;4.15;;;;;;;;;;5114481;28;20394;-77
2022/06/29 04:24:49;;;;;;;6.00;4.78;;;;;;;;;;5114356;28;20055;-76
2022/06/29 04:27:15;;;;;;;4.55;4.05;;;;;;;;;;5114459;28;20041;-77
2022/06/29 04:29:42;;;;;;;5.05;3.72;;;;;;;;;;5114271;28;20035;-76
2022/06/29 04:32:09;;;;;;;4.20;3.80;;;;;;;;;;5114268;28;20032;-78
2022/06/29 04:34:35;;;;;;;16.50;14.23;;;;;;;;;;5114081;28;20023;-77
2022/06/29 04:37:01;;;;;;;5.63;3.90;;;;;;;;;;5114221;28;20019;-76
2022/06/29 04:39:27;;;;;;;4.60;4.20;;;;;;;;;;5095958;28;20027;-78
2022/06/29 04:41:54;;;;;;;4.50;4.03;;;;;;;;;;5113671;28;20070;-77
2022/06/29 04:44:21;;;;;;;5.32;3.30;;;;;;;;;;5114233;28;20024;-77
2022/06/29 04:46:47;;;;;;;6.00;4.70;;;;;;;;;;5114005;28;20047;-78
2022/06/29 04:49:13;;;;;;;6.47;4.07;;;;;;;;;;5113926;28;20016;-76
2022/06/29 04:51:39;;;;;;;6.03;4.18;;;;;;;;;;5113376;28;20049;-79
2022/06/29 04:54:05;;;;;;;7.45;4.97;;;;;;;;;;5113042;28;20035;-77
2022/06/29 04:56:32;;;;;;;5.13;4.60;;;;;;;;;;5113710;28;20082;-78
2022/06/29 04:58:59;;;;;;;6.70;5.22;;;;;;;;;;5113447;28;20065;-76
2022/06/29 05:01:27;;;;;;;9.13;5.10;;;;;;;;;;5113595;28;20081;-79
2022/06/29 05:03:53;;;;;;;5.55;4.50;;;;;;;;;;5113292;28;20107;-77
2022/06/29 05:06:22;;;;;;;8.63;4.60;;;;;;;;;;5113674;28;20474;-78
2022/06/29 05:08:52;;;;;;;7.05;4.53;;;;;;;;;;5113257;28;20026;-77
2022/06/29 05:11:22;;;;;;;5.28;4.05;;;;;;;;;;5113563;28;20049;-79
2022/06/29 05:13:48;;;;;;;5.40;4.10;;;;;;;;;;5113342;28;20081;-78
2022/06/29 05:16:19;;;;;;;5.35;4.15;;;;;;;;;;5113464;28;20024;-79
2022/06/29 05:18:45;;;;;;;4.65;4.00;;;;;;;;;;5112826;28;20111;-79
2022/06/29 05:21:12;;;;;;;6.90;4.57;;;;;;;;;;5094783;28;20497;-78
2022/06/29 05:23:41;;;;;;;12.85;7.50;;;;;;;;;;5106312;28;20035;-77
2022/06/29 05:26:07;;;;;;;45.50;10.93;;;;;;;;;;5113277;28;20094;-80
2022/06/29 05:28:33;;;;;;;7.10;3.95;;;;;;;;;;5108982;28;20034;-79
2022/06/29 05:31:00;;;;;;;6.20;5.60;;;;;;;;;;5111559;28;20490;-78
2022/06/29 05:33:28;;;;;;;5.68;5.03;;;;;;;;;;5109393;28;20387;-80
2022/06/29 05:35:55;;;;;;;4.95;4.20;;;;;;;;;;5105802;28;20039;-77
2022/06/29 05:38:21;;;;;;;5.30;4.40;;;;;;;;;;5112347;28;20035;-79
2022/06/29 05:40:47;;;;;;;7.45;4.05;;;;;;;;;;5112824;28;20100;-76
2022/06/29 05:43:13;;;;;;;24.48;5.63;;;;;;;;;;5105918;28;20030;-76
2022/06/29 05:45:39;;;;;;;11.15;5.00;;;;;;;;;;5105763;28;20077;-76
2022/06/29 05:48:05;;;;;;;8.48;4.22;;;;;;;;;;5108543;28;20790;-77
2022/06/29 05:50:31;;;;;;;7.45;4.07;;;;;;;;;;5111384;28;20077;-77
2022/06/29 05:52:58;;;;;;;41.60;18.67;;;;;;;;;;5110578;28;20034;-77
2022/06/29 05:55:25;;;;;;;44.47;20.23;;;;;;;;;;5111649;28;20106;-76
2022/06/29 05:57:51;;;;;;;32.78;17.15;;;;;;;;;;5104618;28;20564;-77
2022/06/29 06:00:19;;;;;;;6.22;5.18;;;;;;;;;;5091076;28;20024;-79
2022/06/29 06:02:45;;;;;;;19.60;15.98;;;;;;;;;;5090953;28;20073;-79
2022/06/29 06:05:11;;;;;;;17.13;13.40;;;;;;;;;;5090594;28;20483;-79
2022/06/29 06:07:37;;;;;;;25.67;15.65;;;;;;;;;;5092971;28;20031;-78
2022/06/29 06:10:04;;;;;;;22.65;13.27;;;;;;;;;;5110251;28;20034;-79
2022/06/29 06:12:30;;;;;;;30.23;22.48;;;;;;;;;;5111328;28;20031;-80
2022/06/29 06:14:58;;;;;;;42.25;25.27;;;;;;;;;;5111230;28;20539;-79
2022/06/29 06:17:26;;;;;;;24.77;13.15;;;;;;;;;;5109627;28;20046;-77
2022/06/29 06:19:53;;;;;;;33.63;16.73;;;;;;;;;;5102471;28;20083;-77
2022/06/29 06:22:19;;;;;;;30.75;17.27;;;;;;;;;;5110704;28;20041;-78
2022/06/29 06:24:45;;;;;;;23.85;14.30;;;;;;;;;;5111248;28;20020;-78
2022/06/29 06:27:11;;;;;;;25.60;14.63;;;;;;;;;;5111238;28;20027;-78
2022/06/29 06:29:37;;;;;;;38.55;34.55;;;;;;;;;;5108985;28;20414;-78
2022/06/29 06:32:04;;;;;;;14.18;12.77;;;;;;;;;;5104615;28;20056;-77
2022/06/29 06:34:31;;;;;;;26.38;23.85;;;;;;;;;;5093690;28;20032;-76
2022/06/29 06:36:57;;;;;;;16.95;15.07;;;;;;;;;;5108075;28;20020;-78
2022/06/29 06:39:23;;;;;;;10.02;9.05;;;;;;;;;;5108252;28;20087;-78
2022/06/29 06:41:49;;;;;;;7.55;5.97;;;;;;;;;;5102417;28;20569;-81
2022/06/29 06:44:15;;;;;;;7.13;5.22;;;;;;;;;;5114030;28;20031;-80
2022/06/29 06:46:46;;;;;;;7.75;5.45;;;;;;;;;;5114912;28;20058;-79
2022/06/29 06:49:12;;;;;;;4.70;4.30;;;;;;;;;;5095316;27;20028;-78
2022/06/29 06:51:39;;;;;;;14.95;11.10;;;;;;;;;;5115159;28;20019;-79
2022/06/29 06:54:05;;;;;;;103.82;53.42;;;;;;;;;;5114402;28;20030;-80
2022/06/29 06:56:31;;;;;;;74.82;37.17;;;;;;;;;;5114496;28;20401;-77
2022/06/29 06:58:57;;;;;;;46.00;24.42;;;;;;;;;;5115142;28;20107;-80
2022/06/29 07:01:23;;;;;;;106.15;51.67;;;;;;;;;;5113887;28;20039;-78
2022/06/29 07:03:49;;;;;;;93.05;48.25;;;;;;;;;;5111765;28;20106;-80
2022/06/29 07:06:15;;;;;;;85.38;41.10;;;;;;;;;;5111679;28;20032;-81
2022/06/29 07:08:42;;;;;;;76.18;38.65;;;;;;;;;;5104664;28;20093;-81
2022/06/29 07:11:08;;;;;;;30.67;16.70;;;;;;;;;;5109192;28;20024;-79
2022/06/29 07:13:35;;;;;;;16.80;10.07;;;;;;;;;;5092067;28;20066;-80
2022/06/29 07:16:03;;;;;;;8.75;5.15;;;;;;;;;;5114835;28;20100;-77
2022/06/29 07:18:29;;;;;;;28.95;16.05;;;;;;;;;;5114312;28;20031;-79
2022/06/29 07:20:55;;;;;;;40.22;20.75;;;;;;;;;;5112434;27;20073;-78
2022/06/29 07:23:21;;;;;;;21.40;12.32;;;;;;;;;;5114002;28;20066;-77
2022/06/29 07:25:48;;;;;;;13.02;9.10;;;;;;;;;;5113977;28;20016;-78
2022/06/29 07:28:14;;;;;;;18.38;11.60;;;;;;;;;;5104983;28;20028;-79
2022/06/29 07:30:40;;;;;;;5.75;4.80;;;;;;;;;;5103629;27;20509;-77
2022/06/29 07:33:09;;;;;;;9.93;5.80;;;;;;;;;;5107874;28;20027;-77
2022/06/29 07:35:35;;;;;;;4.93;4.43;;;;;;;;;;5107122;28;20039;-77
2022/06/29 07:38:01;;;;;;;5.63;5.10;;;;;;;;;;5107483;28;20032;-78
2022/06/29 07:40:27;;;;;;;8.80;8.00;;;;;;;;;;5111443;28;20453;-77
2022/06/29 07:42:53;;;;;;;24.45;15.40;;;;;;;;;;5113936;28;20058;-79
2022/06/29 07:45:20;;;;;;;15.18;8.00;;;;;;;;;;5111813;28;20742;-78
2022/06/29 07:47:46;;;;;;;16.23;10.13;;;;;;;;;;5108680;28;20471;-77
2022/06/29 07:50:13;;;;;;;10.90;6.72;;;;;;;;;;5110271;27;20035;-77
2022/06/29 07:52:40;;;;;;;14.07;7.60;;;;;;;;;;5112388;28;20129;-77
2022/06/29 07:55:06;;;;;;;9.95;6.63;;;;;;;;;;5107362;28;20035;-77
2022/06/29 07:57:32;;;;;;;6.30;4.18;;;;;;;;;;5107894;28;20477;-77
2022/06/29 07:59:58;;;;;;;40.58;18.17;;;;;;;;;;5113979;28;20112;-79
2022/06/29 08:02:24;;;;;;;96.72;41.38;;;;;;;;;;5113060;28;20379;-77
2022/06/29 08:04:51;;;;;;;64.20;34.25;;;;;;;;;;5097505;28;20039;-77
2022/06/29 08:07:17;;;;;;;69.38;32.63;;;;;;;;;;5111409;27;20039;-77
2022/06/29 08:09:43;;;;;;;34.67;18.73;;;;;;;;;;5110060;28;20454;-76
2022/06/29 08:12:09;;;;;;;24.00;13.77;;;;;;;;;;5110312;28;20028;-77
2022/06/29 08:14:35;;;;;;;12.80;9.27;;;;;;;;;;5112562;28;20028;-76
2022/06/29 08:17:02;;;;;;;34.63;30.58;;;;;;;;;;5112061;27;20051;-77
2022/06/29 08:22:15;;;;;;;8.77;7.45;;;;;;;;;;5095214;28;20081;-76
2022/06/29 08:24:41;;;;;;;33.67;18.00;;;;;;;;;;5111349;28;20030;-77
2022/06/29 08:27:10;;;;;;;146.25;61.05;;;;;;;;;;5110652;28;20059;-80
2022/06/29 08:29:43;;;;;;;193.88;76.28;;;;;;;;;;5093487;28;20070;-79
2022/06/29 08:32:09;;;;;;;326.20;129.52;;;;;;;;;;5110893;28;20030;-77
2022/06/29 08:34:41;;;;;;;155.20;61.00;;;;;;;;;;5110103;28;20031;-79
2022/06/29 08:37:09;;;;;;;21.75;10.77;;;;;;;;;;5097961;27;22051;-78
2022/06/29 08:39:36;;;;;;;114.72;46.35;;;;;;;;;;5109293;28;20077;-77
2022/06/29 08:42:04;;;;;;;61.00;24.83;;;;;;;;;;5110536;28;20054;-77
2022/06/29 08:44:32;;;;;;;83.57;33.92;;;;;;;;;;5112793;28;20069;-77
2022/06/29 08:47:00;;;;;;;14.80;10.27;;;;;;;;;;5109192;28;20025;-77
2022/06/29 08:49:26;;;;;;;45.80;22.08;;;;;;;;;;5106548;28;20026;-80
2022/06/29 08:51:54;;;;;;;55.45;23.98;;;;;;;;;;5070287;28;20027;-78
2022/06/29 08:54:20;;;;;;;32.67;15.13;;;;;;;;;;5090002;28;20106;-78
2022/06/29 08:56:48;;;;;;;43.28;20.38;;;;;;;;;;5107255;28;20102;-76
2022/06/29 08:59:15;;;;;;;10.05;6.32;;;;;;;;;;5103368;27;20039;-77
2022/06/29 09:01:41;;;;;;;11.43;6.30;;;;;;;;;;5103121;28;20024;-78
2022/06/29 09:04:07;;;;;;;4.00;3.60;;;;;;;;;;5101073;28;20107;-77
2022/06/29 09:06:34;;;;;;;9.05;4.88;;;;;;;;;;5107880;28;20031;-76
2022/06/29 09:09:00;;;;;;;7.18;5.05;;;;;;;;;;5100969;28;20020;-78
2022/06/29 09:11:31;;;;;;;8.00;4.80;;;;;;;;;;5096643;28;20386;-79
2022/06/29 09:14:14;;;;;;;4.93;3.80;;;;;;;;;;5105784;28;20059;-80
2022/06/29 09:16:59;;;;;;;7.20;5.63;;;;;;;;;;5108931;28;20023;-79
2022/06/29 09:19:38;;;;;;;6.13;4.45;;;;;;;;;;5095093;28;20442;-79
2022/06/29 09:22:04;;;;;;;7.47;4.57;;;;;;;;;;5091029;28;20104;-79
2022/06/29 09:24:35;;;;;;;7.13;5.05;;;;;;;;;;5107154;27;20032;-82
2022/06/29 09:27:03;;;;;;;4.47;4.07;;;;;;;;;;5109405;27;20114;-77
2022/06/29 09:29:34;;;;;;;6.05;4.15;;;;;;;;;;5108562;28;20031;-80
2022/06/29 09:32:07;;;;;;;5.25;4.30;;;;;;;;;;5110475;28;20105;-80
2022/06/29 09:34:34;;;;;;;4.28;3.88;;;;;;;;;;5111579;28;20031;-80
2022/06/29 09:37:00;;;;;;;4.05;3.42;;;;;;;;;;5111446;28;20024;-79
2022/06/29 09:39:39;;;;;;;4.88;3.50;;;;;;;;;;5108220;28;20023;-79
2022/06/29 09:42:10;;;;;;;6.53;3.63;;;;;;;;;;5091160;28;20600;-81
2022/06/29 09:44:36;;;;;;;6.32;3.50;;;;;;;;;;5073171;28;20395;-77
2022/06/29 09:47:12;;;;;;;3.65;3.17;;;;;;;;;;5098019;28;20047;-77
2022/06/29 09:49:39;;;;;;;2.95;2.72;;;;;;;;;;5088495;28;20044;-77
2022/06/29 09:52:07;;;;;;;2.42;2.22;;;;;;;;;;5097274;28;20063;-77
2022/06/29 09:54:36;;;;;;;3.58;3.28;;;;;;;;;;5091008;28;20024;-78
2022/06/29 09:57:03;;;;;;;3.28;2.97;;;;;;;;;;5104267;28;20099;-77
2022/06/29 10:05:04;;;;;;;8.27;4.53;;;;;;;;;;5104806;28;20543;-76
2022/06/29 10:07:30;;;;;;;11.25;8.63;;;;;;;;;;5108364;28;20028;-77
2022/06/29 10:10:00;;;;;;;3.13;2.83;;;;;;;;;;5095816;28;20445;-76
2022/06/29 10:15:27;;;;;;;4.82;3.03;;;;;;;;;;5111623;28;20054;-77
2022/06/29 10:18:00;;;;;;;12.20;8.68;;;;;;;;;;5099243;28;20169;-78
2022/06/29 10:20:46;;;;;;;14.40;7.30;;;;;;;;;;5096513;28;20585;-76
2022/06/29 10:23:30;;;;;;;5.60;3.70;;;;;;;;;;5110834;28;20030;-77
2022/06/29 10:25:56;;;;;;;5.65;3.67;;;;;;;;;;5099388;28;20028;-78
2022/06/29 10:28:25;;;;;;;7.03;4.32;;;;;;;;;;5106464;28;20062;-78
2022/06/29 10:30:55;;;;;;;6.97;3.50;;;;;;;;;;5101610;28;20028;-76
2022/06/29 10:33:40;;;;;;;3.30;1.85;;;;;;;;;;5102514;28;20054;-78
2022/06/29 10:36:07;;;;;;;3.88;2.53;;;;;;;;;;5105799;28;20546;-78
2022/06/29 10:38:53;;;;;;;9.50;3.40;;;;;;;;;;5083997;28;20452;-76
2022/06/29 10:44:05;;;;;;;10.48;3.20;;;;;;;;;;5098468;28;20097;-76
2022/06/29 10:46:51;;;;;;;4.40;3.00;;;;;;;;;;5108311;28;20024;-76
2022/06/29 10:49:21;;;;;;;3.33;2.22;;;;;;;;;;5108940;28;20023;-76
2022/06/29 10:51:50;;;;;;;4.50;2.80;;;;;;;;;;5109891;28;20050;-77
2022/06/29 10:54:26;;;;;;;3.08;1.88;;;;;;;;;;5095877;28;20032;-77
2022/06/29 10:56:52;;;;;;;2.92;2.55;;;;;;;;;;5098797;28;20032;-77
2022/06/29 10:59:37;;;;;;;3.67;2.30;;;;;;;;;;5101894;28;20031;-77
2022/06/29 11:02:22;;;;;;;2.92;1.85;;;;;;;;;;5106415;28;20032;-76
2022/06/29 11:04:48;;;;;;;9.95;8.13;;;;;;;;;;5096916;28;20355;-78
2022/06/29 11:12:51;;;;;;;4.15;3.17;;;;;;;;;;5103129;28;20109;-76
2022/06/29 11:15:41;;;;;;;5.63;1.90;;;;;;;;;;5101163;28;20015;-77
2022/06/29 11:18:29;;;;;;;4.68;2.75;;;;;;;;;;5099454;28;20024;-78
2022/06/29 11:21:02;;;;;;;7.35;3.78;;;;;;;;;;5106609;27;20032;-77
2022/06/29 11:23:30;;;;;;;10.20;5.63;;;;;;;;;;5108201;27;20553;-77
2022/06/29 11:25:57;;;;;;;3.90;1.90;;;;;;;;;;5107000;28;20038;-76
2022/06/29 11:28:27;;;;;;;28.52;24.58;;;;;;;;;;5108388;27;20093;-77
2022/06/29 11:31:01;;;;;;;14.75;13.15;;;;;;;;;;5115197;28;20037;-76
2022/06/29 11:33:31;;;;;;;13.75;7.43;;;;;;;;;;5104513;28;20031;-78
2022/06/29 11:35:57;;;;;;;45.33;22.20;;;;;;;;;;5110804;28;20020;-81
2022/06/29 11:38:30;;;;;;;51.80;24.15;;;;;;;;;;5106615;28;20034;-79
2022/06/29 11:40:56;;;;;;;17.25;7.70;;;;;;;;;;5109854;28;20027;-82
2022/06/29 11:43:23;;;;;;;10.52;4.93;;;;;;;;;;5100987;28;20027;-79
2022/06/29 11:45:49;;;;;;;10.35;5.25;;;;;;;;;;5108005;28;20059;-80
2022/06/29 11:48:15;;;;;;;7.85;4.03;;;;;;;;;;5114924;28;20063;-78
2022/06/29 11:50:42;;;;;;;6.93;3.50;;;;;;;;;;5096575;28;20019;-80
2022/06/29 11:53:08;;;;;;;16.42;3.75;;;;;;;;;;5100713;28;20040;-81
2022/06/29 11:55:54;;;;;;;6.30;3.55;;;;;;;;;;5093964;28;20047;-80
2022/06/29 11:58:22;;;;;;;4.30;2.72;;;;;;;;;;5100663;28;20517;-81
2022/06/29 12:00:49;;;;;;;4.55;2.65;;;;;;;;;;5105078;28;20066;-81
2022/06/29 12:03:15;;;;;;;5.45;3.85;;;;;;;;;;5103614;28;20106;-82
2022/06/29 12:06:00;;;;;;;7.43;3.28;;;;;;;;;;5107377;28;20028;-80
2022/06/29 12:08:30;;;;;;;3.38;2.40;;;;;;;;;;5107399;28;20020;-79
2022/06/29 12:10:56;;;;;;;6.55;2.45;;;;;;;;;;5106203;28;20020;-78
2022/06/29 12:13:23;;;;;;;3.75;2.00;;;;;;;;;;5103018;28;20471;-77
2022/06/29 12:15:49;;;;;;;3.65;1.45;;;;;;;;;;5112553;28;20438;-77
2022/06/29 12:18:16;;;;;;;3.08;2.17;;;;;;;;;;5114273;28;20028;-77
2022/06/29 12:20:43;;;;;;;3.30;2.00;;;;;;;;;;5108721;28;20042;-77
2022/06/29 12:23:09;;;;;;;4.57;2.30;;;;;;;;;;5103873;28;20019;-77
2022/06/29 12:25:36;;;;;;;4.13;2.00;;;;;;;;;;5103725;28;20419;-79
2022/06/29 12:28:02;;;;;;;4.63;2.17;;;;;;;;;;5109442;28;20543;-78
2022/06/29 12:30:29;;;;;;;7.15;3.97;;;;;;;;;;5108794;28;20032;-77
2022/06/29 12:32:55;;;;;;;14.05;7.30;;;;;;;;;;5102865;28;20028;-77
2022/06/29 12:35:21;;;;;;;15.73;8.82;;;;;;;;;;5104014;28;20089;-77
2022/06/29 12:37:48;;;;;;;5.93;3.53;;;;;;;;;;5107737;28;20012;-77
2022/06/29 12:40:14;;;;;;;4.65;3.03;;;;;;;;;;5106190;28;20034;-77
2022/06/29 12:42:40;;;;;;;10.32;4.53;;;;;;;;;;5091645;28;20056;-77
2022/06/29 12:45:08;;;;;;;11.77;5.03;;;;;;;;;;5106576;28;20107;-78
2022/06/29 12:47:34;;;;;;;8.65;3.90;;;;;;;;;;5108886;28;20020;-79
2022/06/29 12:50:03;;;;;;;4.50;2.75;;;;;;;;;;5107917;28;20023;-79
2022/06/29 12:52:29;;;;;;;7.28;3.50;;;;;;;;;;5104505;28;20024;-80
2022/06/29 12:54:55;;;;;;;5.15;2.47;;;;;;;;;;5103817;28;20015;-80
2022/06/29 12:57:22;;;;;;;6.78;2.83;;;;;;;;;;5105715;28;20135;-80
2022/06/29 12:59:48;;;;;;;18.73;9.77;;;;;;;;;;5109040;28;20069;-78
2022/06/29 13:02:14;;;;;;;4.88;2.50;;;;;;;;;;5105279;28;20023;-80
2022/06/29 13:04:41;;;;;;;16.10;7.50;;;;;;;;;;5097628;28;20118;-80
2022/06/29 13:07:07;;;;;;;9.68;3.95;;;;;;;;;;5098277;28;20561;-80
2022/06/29 13:09:33;;;;;;;6.78;2.75;;;;;;;;;;5094034;28;20478;-79
2022/06/29 13:12:05;;;;;;;4.25;1.92;;;;;;;;;;5112855;28;20119;-79
2022/06/29 13:14:31;;;;;;;2.00;1.13;;;;;;;;;;5096473;28;20064;-79
2022/06/29 13:16:57;;;;;;;3.22;1.52;;;;;;;;;;5107433;28;20382;-82
2022/06/29 13:19:23;;;;;;;3.85;1.70;;;;;;;;;;5102260;28;20887;-81
2022/06/29 13:25:30;;;;;;;2.47;1.27;;;;;;;;;;5024696;28;20053;-79
2022/06/29 13:27:56;;;;;;;4.22;2.20;;;;;;;;;;5024621;28;20473;-78
2022/06/29 13:30:24;;;;;;;2.47;1.58;;;;;;;;;;5069540;28;20075;-77
2022/06/29 13:32:50;;;;;;;3.50;1.73;;;;;;;;;;5104204;28;20066;-78
2022/06/29 13:35:50;;;;;;;;;;;;;;;;;;;;;
2022/06/29 13:38:18;;;;;;;2.75;1.45;;;;;;;;;;5105905;28;20058;-77
2022/06/29 13:40:45;;;;;;;3.10;1.60;;;;;;;;;;5112243;28;20502;-77
2022/06/29 13:43:11;;;;;;;4.05;3.30;;;;;;;;;;5112694;28;20020;-77
2022/06/29 13:45:37;;;;;;;4.25;1.70;;;;;;;;;;5112379;28;20026;-77
2022/06/29 13:48:03;;;;;;;6.93;2.03;;;;;;;;;;5102153;28;20429;-77
2022/06/29 13:50:29;;;;;;;7.25;1.92;;;;;;;;;;5102304;28;20024;-77
2022/06/29 13:52:57;;;;;;;2.70;1.25;;;;;;;;;;5100580;28;20463;-78
2022/06/29 13:55:24;;;;;;;2.15;1.20;;;;;;;;;;5106419;28;20494;-78
2022/06/29 13:57:50;;;;;;;18.17;3.72;;;;;;;;;;5112666;28;20051;-77
2022/06/29 14:00:18;;;;;;;2.95;1.55;;;;;;;;;;5111856;28;20020;-77
2022/06/29 14:02:44;;;;;;;2.15;1.50;;;;;;;;;;5106839;28;20027;-78
2022/06/29 14:05:10;;;;;;;2.58;1.33;;;;;;;;;;5103618;28;20043;-77
2022/06/29 14:07:36;;;;;;;1.98;1.40;;;;;;;;;;5100289;28;20028;-77
2022/06/29 14:10:03;;;;;;;3.58;1.40;;;;;;;;;;5092245;28;20445;-78
2022/06/29 14:12:29;;;;;;;3.72;1.65;;;;;;;;;;5093366;28;20028;-77
2022/06/29 14:14:55;;;;;;;3.40;1.90;;;;;;;;;;5101844;28;20027;-77
2022/06/29 14:17:21;;;;;;;2.35;1.48;;;;;;;;;;5106535;28;20451;-76
2022/06/29 14:19:47;;;;;;;4.85;1.58;;;;;;;;;;5106591;28;20022;-76
2022/06/29 14:22:13;;;;;;;73.85;7.93;;;;;;;;;;5100690;28;20031;-77
2022/06/29 14:24:40;;;;;;;3.50;1.63;;;;;;;;;;5094241;28;20024;-76
2022/06/29 14:27:06;;;;;;;2.55;1.10;;;;;;;;;;5096598;28;20439;-79
2022/06/29 14:29:32;;;;;;;2.45;1.42;;;;;;;;;;5094874;28;20017;-77
2022/06/29 14:31:58;;;;;;;5.57;2.33;;;;;;;;;;5101616;28;20478;-77
2022/06/29 14:34:25;;;;;;;4.10;2.15;;;;;;;;;;5106729;28;20565;-79
2022/06/29 14:36:51;;;;;;;3.30;1.67;;;;;;;;;;5112005;28;20065;-78
2022/06/29 14:39:17;;;;;;;2.63;1.73;;;;;;;;;;5110776;28;20527;-81
2022/06/29 14:41:43;;;;;;;4.72;1.83;;;;;;;;;;5112153;28;20059;-78
2022/06/29 14:44:10;;;;;;;2.05;1.55;;;;;;;;;;5112219;28;20019;-77
2022/06/29 14:46:36;;;;;;;3.00;1.45;;;;;;;;;;5112091;28;20016;-77
2022/06/29 14:49:03;;;;;;;2.03;1.08;;;;;;;;;;5109551;28;20078;-77
2022/06/29 14:51:29;;;;;;;2.97;1.40;;;;;;;;;;5108758;28;20035;-77
2022/06/29 14:53:55;;;;;;;5.05;1.60;;;;;;;;;;5111842;28;20015;-79
2022/06/29 14:56:21;;;;;;;2.63;1.65;;;;;;;;;;5116078;28;20043;-78
2022/06/29 14:58:48;;;;;;;1.42;1.10;;;;;;;;;;5115738;28;20051;-78
2022/06/29 15:01:14;;;;;;;3.25;1.77;;;;;;;;;;5116085;28;20020;-79
2022/06/29 15:03:41;;;;;;;3.50;1.60;;;;;;;;;;5116033;28;20019;-82
2022/06/29 15:06:07;;;;;;;5.13;2.58;;;;;;;;;;5115680;28;20019;-80